createdAt,value
2023-02-03T00:02:58.552Z,81.20
2023-02-03T00:06:03.029Z,83.57
2023-02-03T00:09:06.876Z,123.28
2023-02-03T00:12:10.915Z,95.90
2023-02-03T00:15:15.012Z,67.18
2023-02-03T00:18:18.149Z,98.95
2023-02-03T00:21:21.507Z,74.85
2023-02-03T00:24:25.022Z,66.50
2023-02-03T00:27:28.960Z,141.25
2023-02-03T00:30:34.846Z,137.43
2023-02-03T00:33:39.986Z,130.73
2023-02-03T00:36:43.923Z,225.05
2023-02-03T00:39:47.899Z,168.38
2023-02-03T00:42:51.523Z,109.17
2023-02-03T00:45:55.479Z,145.82
2023-02-03T00:48:59.544Z,151.40
2023-02-03T00:52:02.835Z,134.88
2023-02-03T00:55:07.022Z,161.48
2023-02-03T00:58:10.582Z,107.60
2023-02-03T01:01:14.141Z,92.15
2023-02-03T01:04:19.327Z,145.03
2023-02-03T01:07:22.388Z,134.10
2023-02-03T01:10:25.890Z,138.63
2023-02-03T01:13:29.615Z,135.63
2023-02-03T01:16:37.152Z,159.90
2023-02-03T01:19:40.056Z,135.32
2023-02-03T01:22:44.256Z,132.68
2023-02-03T01:25:47.823Z,119.15
2023-02-03T01:28:53.953Z,138.30
2023-02-03T01:31:57.788Z,102.47
2023-02-03T01:35:01.767Z,157.77
2023-02-03T01:38:12.599Z,224.57
2023-02-03T01:41:22.280Z,139.77
2023-02-03T01:44:43.102Z,363.67
2023-02-03T01:47:55.290Z,266.35
2023-02-03T01:50:58.592Z,333.60
2023-02-03T01:54:03.485Z,224.35
2023-02-03T01:57:14.355Z,175.55
2023-02-03T02:00:18.916Z,180.68
2023-02-03T02:03:27.971Z,140.07
2023-02-03T02:06:31.978Z,354.47
2023-02-03T02:09:35.464Z,383.27
2023-02-03T02:12:38.958Z,156.35
2023-02-03T02:16:32.026Z,180.43
2023-02-03T02:20:05.198Z,96.00
2023-02-03T02:23:23.651Z,312.42
2023-02-03T02:26:50.405Z,212.93
2023-02-03T02:30:31.270Z,92.85
2023-02-03T02:34:05.930Z,31.55
2023-02-03T02:37:41.968Z,22.38
2023-02-03T02:41:12.892Z,67.23
2023-02-03T02:44:42.000Z,80.50
2023-02-03T02:47:47.045Z,37.53
2023-02-03T02:50:54.317Z,51.80
2023-02-03T02:54:01.770Z,36.05
2023-02-03T02:57:07.116Z,22.95
2023-02-03T03:00:13.971Z,84.72
2023-02-03T03:03:22.591Z,101.63
2023-02-03T03:06:34.907Z,62.08
2023-02-03T03:09:48.482Z,64.40
2023-02-03T03:13:02.633Z,38.17
2023-02-03T03:16:08.486Z,90.18
2023-02-03T03:19:17.096Z,117.85
2023-02-03T03:22:23.640Z,130.13
2023-02-03T03:25:34.373Z,139.80
2023-02-03T03:29:08.351Z,109.35
2023-02-03T03:32:12.368Z,67.35
2023-02-03T03:35:16.908Z,134.40
2023-02-03T03:38:24.366Z,144.43
2023-02-03T03:41:42.161Z,137.05
2023-02-03T03:44:53.639Z,133.37
2023-02-03T03:48:06.874Z,85.90
2023-02-03T03:51:14.876Z,106.25
2023-02-03T03:54:23.281Z,84.93
2023-02-03T03:57:42.267Z,106.28
2023-02-03T04:00:47.748Z,72.43
2023-02-03T04:03:56.975Z,107.53
2023-02-03T04:07:01.026Z,69.68
2023-02-03T04:10:08.020Z,83.93
2023-02-03T04:13:13.164Z,89.03
2023-02-03T04:16:16.778Z,74.90
2023-02-03T04:19:20.763Z,74.45
2023-02-03T04:22:24.329Z,65.88
2023-02-03T04:25:28.352Z,63.47
2023-02-03T04:28:31.914Z,79.22
2023-02-03T04:31:34.860Z,65.57
2023-02-03T04:34:40.844Z,45.10
2023-02-03T04:37:44.821Z,20.67
2023-02-03T04:40:48.664Z,8.90
2023-02-03T04:43:52.462Z,11.90
2023-02-03T04:46:55.358Z,9.90
2023-02-03T04:49:59.044Z,7.00
2023-02-03T04:53:02.380Z,13.23
2023-02-03T04:56:05.659Z,18.83
2023-02-03T04:59:09.470Z,14.55
2023-02-03T05:02:13.073Z,16.60
2023-02-03T05:05:16.905Z,20.88
2023-02-03T05:08:20.904Z,22.05
2023-02-03T05:11:24.589Z,15.80
2023-02-03T05:14:27.882Z,23.15
2023-02-03T05:17:30.818Z,10.07
2023-02-03T05:20:34.144Z,14.88
2023-02-03T05:23:37.220Z,7.75
2023-02-03T05:26:40.511Z,7.53
2023-02-03T05:29:45.771Z,9.15
2023-02-03T05:32:50.621Z,6.82
2023-02-03T05:35:54.527Z,6.07
2023-02-03T05:38:57.392Z,10.55
2023-02-03T05:42:00.679Z,8.40
2023-02-03T05:45:03.815Z,9.20
2023-02-03T05:48:08.334Z,9.67
2023-02-03T05:51:11.245Z,9.13
2023-02-03T05:54:14.688Z,6.55
2023-02-03T05:57:19.845Z,9.80
2023-02-03T06:00:24.886Z,9.00
2023-02-03T06:03:28.235Z,11.98
2023-02-03T06:06:35.756Z,10.70
2023-02-03T06:09:39.368Z,11.00
2023-02-03T06:12:42.500Z,9.43
2023-02-03T06:15:46.171Z,7.63
2023-02-03T06:18:53.249Z,13.43
2023-02-03T06:21:56.116Z,10.48
2023-02-03T06:25:00.044Z,5.65
2023-02-03T06:28:03.402Z,11.63
2023-02-03T06:31:06.970Z,12.52
2023-02-03T06:34:10.153Z,11.60
2023-02-03T06:37:13.839Z,10.77
2023-02-03T06:40:17.426Z,16.13
2023-02-03T06:43:21.128Z,23.42
2023-02-03T06:46:24.189Z,21.48
2023-02-03T06:49:27.877Z,7.60
2023-02-03T06:52:31.458Z,8.43
2023-02-03T06:55:34.397Z,12.27
2023-02-03T06:58:37.936Z,10.50
2023-02-03T07:01:41.590Z,10.05
2023-02-03T07:04:45.752Z,9.00
2023-02-03T07:07:49.410Z,10.88
2023-02-03T07:10:56.598Z,13.13
2023-02-03T07:14:00.481Z,13.68
2023-02-03T07:17:04.317Z,11.38
2023-02-03T07:20:07.673Z,11.83
2023-02-03T07:23:10.894Z,17.38
2023-02-03T07:26:14.105Z,14.05
2023-02-03T07:29:17.699Z,12.53
2023-02-03T07:32:20.836Z,7.22
2023-02-03T07:35:23.970Z,11.60
2023-02-03T07:38:29.127Z,13.65
2023-02-03T07:41:32.741Z,10.90
2023-02-03T07:44:35.761Z,23.60
2023-02-03T07:47:39.165Z,26.92
2023-02-03T07:50:42.277Z,18.03
2023-02-03T07:53:45.774Z,20.65
2023-02-03T07:56:49.306Z,30.08
2023-02-03T07:59:54.606Z,25.08
2023-02-03T08:02:58.240Z,36.95
2023-02-03T08:06:01.089Z,31.37
2023-02-03T08:09:04.906Z,33.55
2023-02-03T08:12:07.944Z,39.15
2023-02-03T08:15:13.669Z,32.63
2023-02-03T08:18:17.660Z,41.80
2023-02-03T08:21:21.599Z,58.00
2023-02-03T08:24:24.722Z,40.33
2023-02-03T08:27:28.469Z,48.85
2023-02-03T08:30:31.615Z,47.55
2023-02-03T08:33:35.267Z,46.72
2023-02-03T08:36:40.672Z,39.23
2023-02-03T08:39:43.932Z,36.03
2023-02-03T08:42:46.906Z,32.25
2023-02-03T08:45:50.653Z,28.30
2023-02-03T08:48:56.959Z,39.00
2023-02-03T08:52:00.681Z,45.00
2023-02-03T08:55:03.630Z,53.65
2023-02-03T08:58:07.511Z,37.70
2023-02-03T09:01:16.036Z,54.67
2023-02-03T09:04:25.171Z,44.47
2023-02-03T09:07:29.111Z,70.47
2023-02-03T09:10:33.008Z,89.75
2023-02-03T09:13:36.720Z,66.50
2023-02-03T09:16:41.141Z,54.03
2023-02-03T09:19:47.343Z,49.92
2023-02-03T09:22:52.020Z,58.17
2023-02-03T09:26:03.389Z,104.45
2023-02-03T09:29:08.158Z,145.65
2023-02-03T09:32:12.243Z,140.05
2023-02-03T09:35:17.050Z,81.13
2023-02-03T09:38:21.350Z,54.63
2023-02-03T09:41:44.850Z,45.47
2023-02-03T09:45:15.121Z,54.70
2023-02-03T09:48:24.354Z,50.93
2023-02-03T09:51:43.015Z,58.05
2023-02-03T09:55:06.756Z,58.33
2023-02-03T09:58:10.466Z,40.72
2023-02-03T10:01:16.532Z,53.92
2023-02-03T10:04:29.647Z,57.55
2023-02-03T10:07:51.580Z,51.88
2023-02-03T10:11:28.209Z,43.17
2023-02-03T10:15:09.008Z,35.20
2023-02-03T10:18:22.337Z,37.63
2023-02-03T10:21:32.625Z,50.80
2023-02-03T10:24:43.927Z,47.92
2023-02-03T10:27:49.765Z,42.13
2023-02-03T10:31:02.002Z,45.00
2023-02-03T10:34:13.455Z,37.08
2023-02-03T10:37:30.753Z,41.58
2023-02-03T10:40:33.836Z,48.17
2023-02-03T10:43:49.608Z,35.60
2023-02-03T10:46:53.130Z,34.75
2023-02-03T10:49:59.552Z,36.65
2023-02-03T10:53:22.864Z,43.93
2023-02-03T10:56:38.895Z,55.85
2023-02-03T10:59:45.840Z,49.28
2023-02-03T11:03:23.565Z,56.58
2023-02-03T11:06:27.291Z,47.47
2023-02-03T11:09:40.381Z,43.60
2023-02-03T11:12:44.025Z,44.08
2023-02-03T11:16:03.912Z,34.53
2023-02-03T11:19:17.510Z,46.65
2023-02-03T11:22:32.033Z,35.80
2023-02-03T11:25:35.737Z,56.30
2023-02-03T11:28:44.218Z,92.15
2023-02-03T11:31:52.004Z,128.93
2023-02-03T11:35:15.468Z,101.97
2023-02-03T11:38:33.664Z,104.95
2023-02-03T11:41:40.997Z,101.10
2023-02-03T11:44:46.090Z,96.80
2023-02-03T11:47:57.424Z,125.67
2023-02-03T11:51:28.310Z,84.05
2023-02-03T11:54:37.173Z,109.25
2023-02-03T11:58:38.977Z,116.23
2023-02-03T12:02:03.779Z,108.40
2023-02-03T12:05:26.536Z,170.57
2023-02-03T12:08:39.140Z,161.48
2023-02-03T12:11:50.708Z,155.48
2023-02-03T12:15:01.258Z,152.52
2023-02-03T12:18:16.191Z,125.18
2023-02-03T12:21:45.081Z,112.63
2023-02-03T12:24:53.732Z,121.90
2023-02-03T12:28:03.511Z,147.65
2023-02-03T12:31:17.139Z,152.23
2023-02-03T12:34:31.818Z,127.97
2023-02-03T12:38:08.234Z,122.72
2023-02-03T12:41:40.450Z,127.90
2023-02-03T12:44:49.584Z,130.02
2023-02-03T12:47:59.397Z,83.85
2023-02-03T12:51:07.231Z,144.25
2023-02-03T12:54:34.111Z,132.73
2023-02-03T12:57:48.061Z,106.28
2023-02-03T13:01:14.170Z,129.10
2023-02-03T13:04:42.401Z,146.70
2023-02-03T13:08:18.661Z,95.47
2023-02-03T13:11:31.001Z,122.25
2023-02-03T13:14:57.799Z,102.50
2023-02-03T13:18:11.510Z,128.25
2023-02-03T13:21:15.094Z,107.13
2023-02-03T13:24:19.391Z,114.45
2023-02-03T13:27:40.392Z,136.87
2023-02-03T13:31:11.902Z,159.68
2023-02-03T13:34:44.973Z,128.55
2023-02-03T13:38:12.439Z,113.23
2023-02-03T13:41:31.920Z,190.38
2023-02-03T13:44:39.895Z,164.90
2023-02-03T13:47:55.274Z,155.05
2023-02-03T13:51:09.266Z,112.15
2023-02-03T13:54:28.403Z,125.95
2023-02-03T13:57:39.311Z,107.13
2023-02-03T14:00:45.016Z,142.80
2023-02-03T14:03:48.629Z,148.32
2023-02-03T14:06:54.871Z,128.85
2023-02-03T14:10:24.809Z,143.00
2023-02-03T14:13:27.973Z,140.70
2023-02-03T14:16:36.349Z,117.32
2023-02-03T14:19:49.077Z,95.30
2023-02-03T14:22:59.350Z,83.75
2023-02-03T14:26:03.287Z,82.00
2023-02-03T14:29:07.259Z,53.45
2023-02-03T14:32:13.342Z,52.33
2023-02-03T14:35:44.383Z,48.20
2023-02-03T14:38:47.596Z,49.35
2023-02-03T14:42:02.505Z,52.90
2023-02-03T14:45:39.932Z,44.95
2023-02-03T14:49:11.802Z,34.15
2023-02-03T14:52:53.539Z,50.67
2023-02-03T14:56:06.565Z,34.47
2023-02-03T14:59:11.695Z,62.28
2023-02-03T15:02:19.991Z,70.13
2023-02-03T15:05:24.851Z,64.50
2023-02-03T15:08:37.224Z,81.32
2023-02-03T15:11:47.305Z,64.78
2023-02-03T15:14:51.298Z,30.10
2023-02-03T15:18:00.150Z,36.85
2023-02-03T15:21:04.235Z,44.42
2023-02-03T15:24:23.366Z,52.65
2023-02-03T15:27:31.466Z,74.18
2023-02-03T15:30:34.494Z,52.55
2023-02-03T15:33:39.388Z,60.33
2023-02-03T15:36:50.419Z,49.83
2023-02-03T15:40:15.664Z,48.90
2023-02-03T15:43:46.795Z,51.75
2023-02-03T15:46:53.252Z,41.67
2023-02-03T15:50:24.955Z,34.15
2023-02-03T15:53:46.859Z,29.35
2023-02-03T15:56:58.010Z,31.70
2023-02-03T16:00:10.468Z,26.65
2023-02-03T16:03:26.011Z,35.75
2023-02-03T16:06:40.927Z,40.75
2023-02-03T16:09:44.413Z,36.80
2023-02-03T16:12:48.133Z,27.58
2023-02-03T16:16:02.637Z,34.33
2023-02-03T16:19:16.252Z,30.67
2023-02-03T16:22:40.016Z,27.67
2023-02-03T16:25:43.258Z,39.67
2023-02-03T16:29:15.573Z,22.13
2023-02-03T16:32:38.501Z,15.30
2023-02-03T16:36:00.785Z,30.75
2023-02-03T16:39:47.775Z,28.98
2023-02-03T16:43:11.113Z,38.13
2023-02-03T16:46:33.385Z,27.25
2023-02-03T16:49:56.128Z,36.67
2023-02-03T16:52:59.739Z,40.60
2023-02-03T16:56:05.665Z,63.83
2023-02-03T16:59:08.700Z,62.15
2023-02-03T17:02:13.048Z,68.82
2023-02-03T17:05:17.369Z,64.65
2023-02-03T17:08:23.745Z,64.72
2023-02-03T17:11:29.410Z,61.05
2023-02-03T17:14:34.999Z,50.73
2023-02-03T17:17:38.561Z,49.70
2023-02-03T17:20:43.313Z,50.60
2023-02-03T17:23:46.945Z,47.80
2023-02-03T17:26:51.438Z,44.50
2023-02-03T17:29:54.309Z,51.90
2023-02-03T17:32:59.349Z,54.28
2023-02-03T17:36:04.406Z,50.08
2023-02-03T17:55:53.548Z,49.20
2023-02-03T17:59:02.065Z,34.17
2023-02-03T18:02:05.064Z,45.72
2023-02-03T18:05:09.221Z,20.23
2023-02-03T18:08:16.346Z,41.15
2023-02-03T18:11:26.312Z,45.65
2023-02-03T18:14:29.442Z,31.55
2023-02-03T18:17:33.671Z,28.73
2023-02-03T18:20:37.300Z,41.85
2023-02-03T18:23:42.016Z,49.63
2023-02-03T18:26:49.352Z,35.37
2023-02-03T18:29:52.658Z,40.85
2023-02-03T18:32:56.296Z,39.75
2023-02-03T18:36:02.368Z,26.70
2023-02-03T18:39:05.773Z,26.98
2023-02-03T18:42:12.391Z,33.03
2023-02-03T18:45:16.022Z,34.35
2023-02-03T18:48:22.305Z,35.90
2023-02-03T18:51:26.629Z,36.28
2023-02-03T18:54:30.583Z,28.90
2023-02-03T18:57:34.337Z,25.60
2023-02-03T19:00:39.378Z,32.63
2023-02-03T19:03:43.532Z,27.42
2023-02-03T19:06:48.535Z,21.02
2023-02-03T19:09:51.388Z,29.00
2023-02-03T19:12:55.253Z,35.88
2023-02-03T19:15:59.367Z,36.85
2023-02-03T19:19:03.485Z,24.07
2023-02-03T19:22:06.995Z,22.75
2023-02-03T19:25:13.164Z,26.13
2023-02-03T19:28:29.980Z,17.97
2023-02-03T19:31:36.314Z,23.58
2023-02-03T19:34:40.000Z,17.95
2023-02-03T19:37:43.920Z,14.02
2023-02-03T19:40:47.508Z,14.68
2023-02-03T19:43:53.024Z,15.70
2023-02-03T19:46:56.597Z,21.98
2023-02-03T19:50:02.534Z,20.03
2023-02-03T19:53:08.922Z,23.92
2023-02-03T19:56:15.672Z,25.58
2023-02-03T19:59:19.219Z,34.17
2023-02-03T20:02:22.983Z,41.47
2023-02-03T20:05:26.691Z,31.30
2023-02-03T20:08:30.555Z,44.85
2023-02-03T20:11:33.491Z,41.08
2023-02-03T20:14:37.736Z,40.63
2023-02-03T20:17:40.745Z,33.40
2023-02-03T20:20:52.954Z,29.83
2023-02-03T20:23:56.524Z,39.42
2023-02-03T20:27:00.364Z,29.52
2023-02-03T20:30:04.545Z,67.67
2023-02-03T20:33:08.291Z,101.30
2023-02-03T20:36:12.823Z,84.57
2023-02-03T20:39:22.141Z,20.80
2023-02-03T20:42:25.415Z,15.25
2023-02-03T20:45:28.623Z,16.30
2023-02-03T20:48:31.799Z,17.25
2023-02-03T20:51:35.471Z,12.03
2023-02-03T20:54:38.524Z,12.73
2023-02-03T20:57:42.225Z,12.68
2023-02-03T21:00:45.898Z,23.23
2023-02-03T21:04:08.284Z,19.52
2023-02-03T21:07:18.588Z,142.95
2023-02-03T21:10:25.856Z,163.05
2023-02-03T21:13:36.280Z,95.70
2023-02-03T21:16:40.851Z,201.57
2023-02-03T21:19:44.551Z,187.32
2023-02-03T21:22:48.079Z,167.27
2023-02-03T21:25:51.655Z,228.52
2023-02-03T21:29:01.011Z,262.83
2023-02-03T21:32:12.154Z,150.83
2023-02-03T21:35:35.577Z,177.65
2023-02-03T21:38:39.221Z,284.63
2023-02-03T21:41:42.140Z,236.60
2023-02-03T21:44:45.769Z,275.58
2023-02-03T21:47:51.126Z,245.35
2023-02-03T21:50:56.822Z,206.85
2023-02-03T21:54:02.556Z,205.53
2023-02-03T21:57:05.970Z,186.55
2023-02-03T22:00:51.327Z,125.32
2023-02-03T22:04:06.883Z,54.23
2023-02-03T22:07:16.276Z,184.25
2023-02-03T22:10:19.940Z,152.15
2023-02-03T22:13:24.055Z,160.13
2023-02-03T22:16:27.081Z,206.80
2023-02-03T22:19:31.174Z,160.63
2023-02-03T22:22:34.552Z,204.15
2023-02-03T22:25:38.968Z,139.00
2023-02-03T22:28:45.743Z,166.93
2023-02-03T22:31:49.012Z,208.02
2023-02-03T22:34:52.740Z,142.33
2023-02-03T22:37:55.989Z,93.43
2023-02-03T22:40:59.206Z,86.63
2023-02-03T22:44:04.158Z,132.02
2023-02-03T22:47:07.055Z,106.47
2023-02-03T22:50:13.336Z,117.35
2023-02-03T22:53:17.066Z,69.15
2023-02-03T22:56:21.888Z,145.83
2023-02-03T22:59:26.638Z,137.63
2023-02-03T23:02:32.163Z,173.05
2023-02-03T23:05:35.317Z,158.33
2023-02-03T23:08:39.468Z,153.38
2023-02-03T23:11:45.568Z,103.40
2023-02-03T23:14:52.112Z,169.65
2023-02-03T23:17:55.300Z,139.32
2023-02-03T23:20:59.306Z,165.05
2023-02-03T23:24:02.164Z,147.15
2023-02-03T23:27:06.230Z,139.93
2023-02-03T23:30:12.856Z,141.77
2023-02-03T23:33:16.539Z,162.60
2023-02-03T23:36:20.168Z,145.83
2023-02-03T23:39:23.726Z,161.20
2023-02-03T23:42:27.072Z,161.80
2023-02-03T23:45:30.195Z,149.25
2023-02-03T23:48:33.088Z,121.63
2023-02-03T23:51:35.945Z,136.20
2023-02-03T23:54:38.806Z,143.00
2023-02-03T23:57:43.172Z,148.20
